sensor_id;sensor_type;location;lat;lon;timestamp;P1;durP1;ratioP1;P2;durP2;ratioP2
29574;SDS011;16507;51.046;6.406;2023-06-19T00:02:14;5.07;;;4.55;;
29574;SDS011;16507;51.046;6.406;2023-06-19T00:04:40;4.78;;;4.38;;
29574;SDS011;16507;51.046;6.406;2023-06-19T00:07:06;4.28;;;3.97;;
29574;SDS011;16507;51.046;6.406;2023-06-19T00:09:32;5.63;;;3.78;;
29574;SDS011;16507;51.046;6.406;2023-06-19T00:11:58;8.82;;;4.40;;
29574;SDS011;16507;51.046;6.406;2023-06-19T00:14:24;6.50;;;3.85;;
29574;SDS011;16507;51.046;6.406;2023-06-19T00:16:50;4.18;;;3.85;;
29574;SDS011;16507;51.046;6.406;2023-06-19T00:19:16;4.47;;;3.83;;
29574;SDS011;16507;51.046;6.406;2023-06-19T00:21:42;6.65;;;4.00;;
29574;SDS011;16507;51.046;6.406;2023-06-19T00:24:09;4.30;;;4.00;;
29574;SDS011;16507;51.046;6.406;2023-06-19T00:26:35;4.05;;;3.85;;
29574;SDS011;16507;51.046;6.406;2023-06-19T00:29:00;4.00;;;3.78;;
29574;SDS011;16507;51.046;6.406;2023-06-19T00:31:26;6.03;;;4.32;;
29574;SDS011;16507;51.046;6.406;2023-06-19T00:33:52;4.18;;;3.80;;
29574;SDS011;16507;51.046;6.406;2023-06-19T00:36:18;3.67;;;3.38;;
29574;SDS011;16507;51.046;6.406;2023-06-19T00:38:50;4.82;;;4.35;;
29574;SDS011;16507;51.046;6.406;2023-06-19T00:41:16;7.25;;;3.72;;
29574;SDS011;16507;51.046;6.406;2023-06-19T00:43:43;5.63;;;3.40;;
29574;SDS011;16507;51.046;6.406;2023-06-19T00:46:09;6.60;;;4.20;;
29574;SDS011;16507;51.046;6.406;2023-06-19T00:48:36;4.43;;;4.07;;
29574;SDS011;16507;51.046;6.406;2023-06-19T00:51:02;6.40;;;4.15;;
29574;SDS011;16507;51.046;6.406;2023-06-19T00:53:27;4.40;;;4.00;;
29574;SDS011;16507;51.046;6.406;2023-06-19T00:55:55;4.55;;;3.70;;
29574;SDS011;16507;51.046;6.406;2023-06-19T00:58:22;4.88;;;4.47;;
29574;SDS011;16507;51.046;6.406;2023-06-19T01:00:48;3.90;;;3.58;;
29574;SDS011;16507;51.046;6.406;2023-06-19T01:03:14;4.07;;;3.88;;
29574;SDS011;16507;51.046;6.406;2023-06-19T01:05:40;4.55;;;4.25;;
29574;SDS011;16507;51.046;6.406;2023-06-19T01:08:29;8.63;;;4.72;;
29574;SDS011;16507;51.046;6.406;2023-06-19T01:11:17;4.70;;;4.30;;
29574;SDS011;16507;51.046;6.406;2023-06-19T01:13:51;5.55;;;4.05;;
29574;SDS011;16507;51.046;6.406;2023-06-19T01:16:30;17.85;;;4.00;;
29574;SDS011;16507;51.046;6.406;2023-06-19T01:18:56;4.72;;;4.35;;
29574;SDS011;16507;51.046;6.406;2023-06-19T01:21:22;7.97;;;4.50;;
29574;SDS011;16507;51.046;6.406;2023-06-19T01:23:48;10.02;;;4.15;;
29574;SDS011;16507;51.046;6.406;2023-06-19T01:26:15;12.02;;;4.82;;
29574;SDS011;16507;51.046;6.406;2023-06-19T01:28:42;9.98;;;3.95;;
29574;SDS011;16507;51.046;6.406;2023-06-19T01:31:14;3.95;;;3.75;;
29574;SDS011;16507;51.046;6.406;2023-06-19T01:33:47;7.30;;;3.95;;
29574;SDS011;16507;51.046;6.406;2023-06-19T01:36:14;3.92;;;3.63;;
29574;SDS011;16507;51.046;6.406;2023-06-19T01:38:42;4.43;;;4.03;;
29574;SDS011;16507;51.046;6.406;2023-06-19T01:41:10;4.80;;;4.47;;
29574;SDS011;16507;51.046;6.406;2023-06-19T01:43:37;4.20;;;3.90;;
29574;SDS011;16507;51.046;6.406;2023-06-19T01:46:03;4.13;;;3.75;;
29574;SDS011;16507;51.046;6.406;2023-06-19T01:48:29;4.03;;;3.75;;
29574;SDS011;16507;51.046;6.406;2023-06-19T01:50:55;7.60;;;3.65;;
29574;SDS011;16507;51.046;6.406;2023-06-19T01:53:21;4.45;;;4.05;;
29574;SDS011;16507;51.046;6.406;2023-06-19T01:55:46;6.65;;;4.30;;
29574;SDS011;16507;51.046;6.406;2023-06-19T01:58:12;6.18;;;3.55;;
29574;SDS011;16507;51.046;6.406;2023-06-19T02:00:38;4.57;;;4.28;;
29574;SDS011;16507;51.046;6.406;2023-06-19T02:03:04;3.85;;;3.40;;
29574;SDS011;16507;51.046;6.406;2023-06-19T02:05:30;3.70;;;3.50;;
29574;SDS011;16507;51.046;6.406;2023-06-19T02:07:56;3.17;;;2.97;;
29574;SDS011;16507;51.046;6.406;2023-06-19T02:10:22;5.18;;;3.90;;
29574;SDS011;16507;51.046;6.406;2023-06-19T02:12:47;3.83;;;3.47;;
29574;SDS011;16507;51.046;6.406;2023-06-19T02:15:13;3.72;;;3.42;;
29574;SDS011;16507;51.046;6.406;2023-06-19T02:17:38;2.90;;;2.65;;
29574;SDS011;16507;51.046;6.406;2023-06-19T02:20:04;3.65;;;3.35;;
29574;SDS011;16507;51.046;6.406;2023-06-19T02:22:33;4.00;;;3.50;;
29574;SDS011;16507;51.046;6.406;2023-06-19T02:24:59;3.33;;;3.13;;
29574;SDS011;16507;51.046;6.406;2023-06-19T02:27:25;6.38;;;3.40;;
29574;SDS011;16507;51.046;6.406;2023-06-19T02:29:50;3.05;;;2.85;;
29574;SDS011;16507;51.046;6.406;2023-06-19T02:32:16;3.08;;;2.80;;
29574;SDS011;16507;51.046;6.406;2023-06-19T02:34:42;3.83;;;2.83;;
29574;SDS011;16507;51.046;6.406;2023-06-19T02:37:07;3.83;;;2.70;;
29574;SDS011;16507;51.046;6.406;2023-06-19T02:39:33;4.57;;;2.90;;
29574;SDS011;16507;51.046;6.406;2023-06-19T02:41:58;5.65;;;2.67;;
29574;SDS011;16507;51.046;6.406;2023-06-19T02:44:24;2.95;;;2.75;;
29574;SDS011;16507;51.046;6.406;2023-06-19T02:46:50;3.15;;;2.95;;
29574;SDS011;16507;51.046;6.406;2023-06-19T02:49:16;3.08;;;2.88;;
29574;SDS011;16507;51.046;6.406;2023-06-19T02:51:41;3.30;;;3.10;;
29574;SDS011;16507;51.046;6.406;2023-06-19T02:54:07;3.28;;;3.05;;
29574;SDS011;16507;51.046;6.406;2023-06-19T02:56:32;3.30;;;2.85;;
29574;SDS011;16507;51.046;6.406;2023-06-19T02:58:58;3.33;;;2.85;;
29574;SDS011;16507;51.046;6.406;2023-06-19T03:01:24;3.10;;;2.90;;
29574;SDS011;16507;51.046;6.406;2023-06-19T03:03:49;4.50;;;2.97;;
29574;SDS011;16507;51.046;6.406;2023-06-19T03:06:17;3.17;;;2.80;;
29574;SDS011;16507;51.046;6.406;2023-06-19T03:08:43;6.13;;;3.00;;
29574;SDS011;16507;51.046;6.406;2023-06-19T03:11:09;3.30;;;2.55;;
29574;SDS011;16507;51.046;6.406;2023-06-19T03:13:46;3.00;;;2.78;;
29574;SDS011;16507;51.046;6.406;2023-06-19T03:16:16;3.15;;;2.95;;
29574;SDS011;16507;51.046;6.406;2023-06-19T03:18:42;2.67;;;2.50;;
29574;SDS011;16507;51.046;6.406;2023-06-19T03:21:10;2.70;;;2.35;;
29574;SDS011;16507;51.046;6.406;2023-06-19T03:23:42;2.83;;;2.63;;
29574;SDS011;16507;51.046;6.406;2023-06-19T03:26:08;3.15;;;2.80;;
29574;SDS011;16507;51.046;6.406;2023-06-19T03:28:37;3.03;;;2.53;;
29574;SDS011;16507;51.046;6.406;2023-06-19T03:31:03;3.03;;;2.83;;
29574;SDS011;16507;51.046;6.406;2023-06-19T03:33:28;2.85;;;2.65;;
29574;SDS011;16507;51.046;6.406;2023-06-19T03:35:54;2.60;;;2.50;;
29574;SDS011;16507;51.046;6.406;2023-06-19T03:38:20;2.60;;;2.40;;
29574;SDS011;16507;51.046;6.406;2023-06-19T03:40:46;6.05;;;2.78;;
29574;SDS011;16507;51.046;6.406;2023-06-19T03:43:11;2.95;;;2.75;;
29574;SDS011;16507;51.046;6.406;2023-06-19T03:45:37;6.90;;;2.67;;
29574;SDS011;16507;51.046;6.406;2023-06-19T03:48:03;3.95;;;3.08;;
29574;SDS011;16507;51.046;6.406;2023-06-19T03:50:28;4.35;;;2.72;;
29574;SDS011;16507;51.046;6.406;2023-06-19T03:52:54;4.93;;;2.60;;
29574;SDS011;16507;51.046;6.406;2023-06-19T03:55:20;2.58;;;2.42;;
29574;SDS011;16507;51.046;6.406;2023-06-19T03:57:46;2.58;;;2.47;;
29574;SDS011;16507;51.046;6.406;2023-06-19T04:00:13;3.30;;;2.60;;
29574;SDS011;16507;51.046;6.406;2023-06-19T04:02:39;4.20;;;2.58;;
29574;SDS011;16507;51.046;6.406;2023-06-19T04:05:06;2.85;;;2.65;;
29574;SDS011;16507;51.046;6.406;2023-06-19T04:07:32;2.85;;;2.65;;
29574;SDS011;16507;51.046;6.406;2023-06-19T04:09:58;3.13;;;2.22;;
29574;SDS011;16507;51.046;6.406;2023-06-19T04:12:24;4.85;;;2.67;;
29574;SDS011;16507;51.046;6.406;2023-06-19T04:14:50;2.83;;;2.63;;
29574;SDS011;16507;51.046;6.406;2023-06-19T04:17:15;5.57;;;2.83;;
29574;SDS011;16507;51.046;6.406;2023-06-19T04:19:42;2.80;;;2.60;;
29574;SDS011;16507;51.046;6.406;2023-06-19T04:22:08;4.03;;;2.65;;
29574;SDS011;16507;51.046;6.406;2023-06-19T04:24:34;3.63;;;2.88;;
29574;SDS011;16507;51.046;6.406;2023-06-19T04:27:00;4.80;;;3.35;;
29574;SDS011;16507;51.046;6.406;2023-06-19T04:29:25;3.17;;;2.88;;
29574;SDS011;16507;51.046;6.406;2023-06-19T04:31:51;2.80;;;2.60;;
29574;SDS011;16507;51.046;6.406;2023-06-19T04:34:17;2.97;;;2.47;;
29574;SDS011;16507;51.046;6.406;2023-06-19T04:36:46;3.83;;;2.65;;
29574;SDS011;16507;51.046;6.406;2023-06-19T04:39:13;2.25;;;2.15;;
29574;SDS011;16507;51.046;6.406;2023-06-19T04:41:38;2.20;;;2.03;;
29574;SDS011;16507;51.046;6.406;2023-06-19T04:44:06;2.60;;;1.90;;
29574;SDS011;16507;51.046;6.406;2023-06-19T04:46:32;4.53;;;2.13;;
29574;SDS011;16507;51.046;6.406;2023-06-19T04:48:58;2.95;;;2.38;;
29574;SDS011;16507;51.046;6.406;2023-06-19T04:51:24;2.20;;;2.00;;
29574;SDS011;16507;51.046;6.406;2023-06-19T04:53:51;2.50;;;2.30;;
29574;SDS011;16507;51.046;6.406;2023-06-19T04:56:17;3.85;;;2.22;;
29574;SDS011;16507;51.046;6.406;2023-06-19T04:58:42;5.05;;;2.40;;
29574;SDS011;16507;51.046;6.406;2023-06-19T05:01:12;3.28;;;1.67;;
29574;SDS011;16507;51.046;6.406;2023-06-19T05:03:39;4.40;;;2.00;;
29574;SDS011;16507;51.046;6.406;2023-06-19T05:06:05;2.13;;;2.00;;
29574;SDS011;16507;51.046;6.406;2023-06-19T05:08:30;2.08;;;1.95;;
29574;SDS011;16507;51.046;6.406;2023-06-19T05:10:56;1.80;;;1.70;;
29574;SDS011;16507;51.046;6.406;2023-06-19T05:13:23;2.45;;;2.08;;
29574;SDS011;16507;51.046;6.406;2023-06-19T05:15:49;1.88;;;1.77;;
29574;SDS011;16507;51.046;6.406;2023-06-19T05:18:15;2.30;;;2.10;;
29574;SDS011;16507;51.046;6.406;2023-06-19T05:20:41;7.22;;;2.15;;
29574;SDS011;16507;51.046;6.406;2023-06-19T05:23:07;2.13;;;1.90;;
29574;SDS011;16507;51.046;6.406;2023-06-19T05:25:33;1.80;;;1.70;;
29574;SDS011;16507;51.046;6.406;2023-06-19T05:27:58;2.65;;;2.00;;
29574;SDS011;16507;51.046;6.406;2023-06-19T05:30:24;1.98;;;1.88;;
29574;SDS011;16507;51.046;6.406;2023-06-19T05:32:49;1.80;;;1.70;;
29574;SDS011;16507;51.046;6.406;2023-06-19T05:35:15;2.53;;;1.90;;
29574;SDS011;16507;51.046;6.406;2023-06-19T05:37:41;1.92;;;1.80;;
29574;SDS011;16507;51.046;6.406;2023-06-19T05:40:08;2.03;;;1.90;;
29574;SDS011;16507;51.046;6.406;2023-06-19T05:42:35;5.40;;;1.90;;
29574;SDS011;16507;51.046;6.406;2023-06-19T05:45:02;5.18;;;2.03;;
29574;SDS011;16507;51.046;6.406;2023-06-19T05:47:28;1.85;;;1.70;;
29574;SDS011;16507;51.046;6.406;2023-06-19T05:49:55;1.80;;;1.70;;
29574;SDS011;16507;51.046;6.406;2023-06-19T05:52:22;1.80;;;1.70;;
29574;SDS011;16507;51.046;6.406;2023-06-19T05:54:47;2.10;;;1.45;;
29574;SDS011;16507;51.046;6.406;2023-06-19T05:57:13;2.08;;;1.70;;
29574;SDS011;16507;51.046;6.406;2023-06-19T05:59:41;2.58;;;2.00;;
29574;SDS011;16507;51.046;6.406;2023-06-19T06:02:07;1.63;;;1.40;;
29574;SDS011;16507;51.046;6.406;2023-06-19T06:04:33;2.88;;;1.80;;
29574;SDS011;16507;51.046;6.406;2023-06-19T06:06:59;2.00;;;1.90;;
29574;SDS011;16507;51.046;6.406;2023-06-19T06:09:25;1.70;;;1.55;;
29574;SDS011;16507;51.046;6.406;2023-06-19T06:11:52;4.15;;;1.70;;
29574;SDS011;16507;51.046;6.406;2023-06-19T06:14:17;2.03;;;1.92;;
29574;SDS011;16507;51.046;6.406;2023-06-19T06:16:43;2.95;;;1.80;;
29574;SDS011;16507;51.046;6.406;2023-06-19T06:19:09;3.63;;;1.88;;
29574;SDS011;16507;51.046;6.406;2023-06-19T06:21:35;3.20;;;1.90;;
29574;SDS011;16507;51.046;6.406;2023-06-19T06:24:01;11.90;;;1.95;;
29574;SDS011;16507;51.046;6.406;2023-06-19T06:26:27;2.13;;;2.00;;
29574;SDS011;16507;51.046;6.406;2023-06-19T06:28:53;2.10;;;1.90;;
29574;SDS011;16507;51.046;6.406;2023-06-19T06:31:19;2.28;;;2.17;;
29574;SDS011;16507;51.046;6.406;2023-06-19T06:33:45;2.25;;;2.15;;
29574;SDS011;16507;51.046;6.406;2023-06-19T06:36:10;1.92;;;1.83;;
29574;SDS011;16507;51.046;6.406;2023-06-19T06:38:36;1.90;;;1.80;;
29574;SDS011;16507;51.046;6.406;2023-06-19T06:41:02;2.17;;;1.98;;
29574;SDS011;16507;51.046;6.406;2023-06-19T06:43:28;2.28;;;2.08;;
29574;SDS011;16507;51.046;6.406;2023-06-19T06:45:53;3.70;;;2.15;;
29574;SDS011;16507;51.046;6.406;2023-06-19T06:48:20;3.20;;;2.20;;
29574;SDS011;16507;51.046;6.406;2023-06-19T06:50:45;2.55;;;2.35;;
29574;SDS011;16507;51.046;6.406;2023-06-19T06:53:11;2.63;;;2.50;;
29574;SDS011;16507;51.046;6.406;2023-06-19T06:55:37;5.53;;;2.53;;
29574;SDS011;16507;51.046;6.406;2023-06-19T06:58:02;3.03;;;2.42;;
29574;SDS011;16507;51.046;6.406;2023-06-19T07:00:28;7.53;;;2.75;;
29574;SDS011;16507;51.046;6.406;2023-06-19T07:02:54;2.40;;;2.20;;
29574;SDS011;16507;51.046;6.406;2023-06-19T07:05:19;3.05;;;2.38;;
29574;SDS011;16507;51.046;6.406;2023-06-19T07:07:45;3.67;;;2.88;;
29574;SDS011;16507;51.046;6.406;2023-06-19T07:10:11;4.30;;;2.58;;
29574;SDS011;16507;51.046;6.406;2023-06-19T07:12:46;3.70;;;3.03;;
29574;SDS011;16507;51.046;6.406;2023-06-19T07:15:13;2.47;;;2.28;;
29574;SDS011;16507;51.046;6.406;2023-06-19T07:17:39;4.15;;;2.45;;
29574;SDS011;16507;51.046;6.406;2023-06-19T07:20:04;4.68;;;2.53;;
29574;SDS011;16507;51.046;6.406;2023-06-19T07:22:31;4.43;;;2.40;;
29574;SDS011;16507;51.046;6.406;2023-06-19T07:24:57;2.65;;;2.42;;
29574;SDS011;16507;51.046;6.406;2023-06-19T07:27:23;5.15;;;2.42;;
29574;SDS011;16507;51.046;6.406;2023-06-19T07:29:52;2.50;;;2.28;;
29574;SDS011;16507;51.046;6.406;2023-06-19T07:32:18;3.13;;;2.33;;
29574;SDS011;16507;51.046;6.406;2023-06-19T07:34:44;7.55;;;2.47;;
29574;SDS011;16507;51.046;6.406;2023-06-19T07:37:10;3.10;;;2.47;;
29574;SDS011;16507;51.046;6.406;2023-06-19T07:39:42;2.88;;;2.50;;
29574;SDS011;16507;51.046;6.406;2023-06-19T07:42:12;2.20;;;2.10;;
29574;SDS011;16507;51.046;6.406;2023-06-19T07:44:39;4.43;;;2.15;;
29574;SDS011;16507;51.046;6.406;2023-06-19T07:47:05;3.88;;;2.42;;
29574;SDS011;16507;51.046;6.406;2023-06-19T07:49:31;3.58;;;2.20;;
29574;SDS011;16507;51.046;6.406;2023-06-19T07:51:57;2.28;;;2.00;;
29574;SDS011;16507;51.046;6.406;2023-06-19T07:54:23;3.80;;;2.70;;
29574;SDS011;16507;51.046;6.406;2023-06-19T07:56:48;6.00;;;2.50;;
29574;SDS011;16507;51.046;6.406;2023-06-19T07:59:14;3.60;;;2.25;;
29574;SDS011;16507;51.046;6.406;2023-06-19T08:01:40;2.10;;;2.00;;
29574;SDS011;16507;51.046;6.406;2023-06-19T08:04:06;2.83;;;2.10;;
29574;SDS011;16507;51.046;6.406;2023-06-19T08:06:31;4.60;;;2.33;;
29574;SDS011;16507;51.046;6.406;2023-06-19T08:08:57;2.83;;;2.25;;
29574;SDS011;16507;51.046;6.406;2023-06-19T08:11:23;2.33;;;2.13;;
29574;SDS011;16507;51.046;6.406;2023-06-19T08:13:48;6.65;;;3.13;;
29574;SDS011;16507;51.046;6.406;2023-06-19T08:16:14;5.57;;;2.00;;
29574;SDS011;16507;51.046;6.406;2023-06-19T08:18:40;2.80;;;2.45;;
29574;SDS011;16507;51.046;6.406;2023-06-19T08:21:05;3.88;;;2.45;;
29574;SDS011;16507;51.046;6.406;2023-06-19T08:23:31;4.68;;;2.80;;
29574;SDS011;16507;51.046;6.406;2023-06-19T08:25:56;4.25;;;2.55;;
29574;SDS011;16507;51.046;6.406;2023-06-19T08:28:22;3.78;;;2.60;;
29574;SDS011;16507;51.046;6.406;2023-06-19T08:30:48;4.05;;;2.63;;
29574;SDS011;16507;51.046;6.406;2023-06-19T08:33:14;2.60;;;2.40;;
29574;SDS011;16507;51.046;6.406;2023-06-19T08:35:40;5.90;;;2.50;;
29574;SDS011;16507;51.046;6.406;2023-06-19T08:38:05;6.05;;;2.60;;
29574;SDS011;16507;51.046;6.406;2023-06-19T08:40:31;4.93;;;3.08;;
29574;SDS011;16507;51.046;6.406;2023-06-19T08:42:58;2.70;;;2.55;;
29574;SDS011;16507;51.046;6.406;2023-06-19T08:45:25;4.20;;;3.08;;
29574;SDS011;16507;51.046;6.406;2023-06-19T08:47:59;5.05;;;2.88;;
29574;SDS011;16507;51.046;6.406;2023-06-19T08:50:27;5.15;;;2.90;;
29574;SDS011;16507;51.046;6.406;2023-06-19T08:52:54;3.72;;;2.67;;
29574;SDS011;16507;51.046;6.406;2023-06-19T08:55:20;8.73;;;3.15;;
29574;SDS011;16507;51.046;6.406;2023-06-19T08:57:47;7.97;;;2.90;;
29574;SDS011;16507;51.046;6.406;2023-06-19T09:00:22;3.53;;;2.55;;
29574;SDS011;16507;51.046;6.406;2023-06-19T09:02:50;5.35;;;2.67;;
29574;SDS011;16507;51.046;6.406;2023-06-19T09:05:17;4.40;;;2.70;;
29574;SDS011;16507;51.046;6.406;2023-06-19T09:07:44;4.70;;;2.53;;
29574;SDS011;16507;51.046;6.406;2023-06-19T09:10:18;3.88;;;2.30;;
29574;SDS011;16507;51.046;6.406;2023-06-19T09:12:55;4.07;;;2.60;;
29574;SDS011;16507;51.046;6.406;2023-06-19T09:15:22;3.97;;;3.40;;
29574;SDS011;16507;51.046;6.406;2023-06-19T09:17:58;3.55;;;2.45;;
29574;SDS011;16507;51.046;6.406;2023-06-19T09:20:28;9.18;;;2.70;;
29574;SDS011;16507;51.046;6.406;2023-06-19T09:22:57;6.18;;;2.75;;
29574;SDS011;16507;51.046;6.406;2023-06-19T09:25:24;6.18;;;2.67;;
29574;SDS011;16507;51.046;6.406;2023-06-19T09:27:51;5.55;;;2.80;;
29574;SDS011;16507;51.046;6.406;2023-06-19T09:30:18;5.32;;;2.90;;
29574;SDS011;16507;51.046;6.406;2023-06-19T09:32:43;4.53;;;3.10;;
29574;SDS011;16507;51.046;6.406;2023-06-19T09:35:09;3.40;;;2.80;;
29574;SDS011;16507;51.046;6.406;2023-06-19T09:37:35;6.80;;;3.10;;
29574;SDS011;16507;51.046;6.406;2023-06-19T09:40:04;2.88;;;2.60;;
29574;SDS011;16507;51.046;6.406;2023-06-19T09:42:40;4.57;;;3.20;;
29574;SDS011;16507;51.046;6.406;2023-06-19T09:45:08;2.80;;;2.58;;
29574;SDS011;16507;51.046;6.406;2023-06-19T09:50:02;3.50;;;2.97;;
29574;SDS011;16507;51.046;6.406;2023-06-19T09:52:29;7.35;;;3.00;;
29574;SDS011;16507;51.046;6.406;2023-06-19T09:54:55;4.45;;;2.70;;
29574;SDS011;16507;51.046;6.406;2023-06-19T09:57:22;3.25;;;3.05;;
29574;SDS011;16507;51.046;6.406;2023-06-19T09:59:54;4.85;;;3.08;;
29574;SDS011;16507;51.046;6.406;2023-06-19T10:02:25;2.75;;;2.55;;
29574;SDS011;16507;51.046;6.406;2023-06-19T10:04:53;4.53;;;3.10;;
29574;SDS011;16507;51.046;6.406;2023-06-19T10:07:23;3.78;;;3.47;;
29574;SDS011;16507;51.046;6.406;2023-06-19T10:09:56;3.45;;;3.00;;
29574;SDS011;16507;51.046;6.406;2023-06-19T10:12:46;5.50;;;3.17;;
29574;SDS011;16507;51.046;6.406;2023-06-19T10:15:13;6.55;;;3.35;;
29574;SDS011;16507;51.046;6.406;2023-06-19T10:17:47;3.70;;;3.40;;
29574;SDS011;16507;51.046;6.406;2023-06-19T10:20:32;9.70;;;3.15;;
29574;SDS011;16507;51.046;6.406;2023-06-19T10:25:30;6.38;;;3.13;;
29574;SDS011;16507;51.046;6.406;2023-06-19T10:27:58;4.72;;;2.95;;
29574;SDS011;16507;51.046;6.406;2023-06-19T10:30:24;4.00;;;3.17;;
29574;SDS011;16507;51.046;6.406;2023-06-19T10:32:50;4.38;;;3.30;;
29574;SDS011;16507;51.046;6.406;2023-06-19T10:35:16;3.42;;;3.10;;
29574;SDS011;16507;51.046;6.406;2023-06-19T10:37:43;6.07;;;3.20;;
29574;SDS011;16507;51.046;6.406;2023-06-19T10:40:10;5.22;;;3.22;;
29574;SDS011;16507;51.046;6.406;2023-06-19T10:42:37;4.40;;;3.45;;
29574;SDS011;16507;51.046;6.406;2023-06-19T10:45:04;3.72;;;3.38;;
29574;SDS011;16507;51.046;6.406;2023-06-19T10:47:32;6.32;;;3.20;;
29574;SDS011;16507;51.046;6.406;2023-06-19T10:49:58;3.92;;;3.17;;
29574;SDS011;16507;51.046;6.406;2023-06-19T10:52:24;5.82;;;3.33;;
29574;SDS011;16507;51.046;6.406;2023-06-19T10:54:56;9.27;;;3.85;;
29574;SDS011;16507;51.046;6.406;2023-06-19T10:57:31;4.68;;;3.25;;
29574;SDS011;16507;51.046;6.406;2023-06-19T10:59:57;3.03;;;2.80;;
29574;SDS011;16507;51.046;6.406;2023-06-19T11:02:23;3.63;;;3.33;;
29574;SDS011;16507;51.046;6.406;2023-06-19T11:04:59;3.53;;;3.20;;
29574;SDS011;16507;51.046;6.406;2023-06-19T11:07:24;7.88;;;3.03;;
29574;SDS011;16507;51.046;6.406;2023-06-19T11:09:50;3.00;;;2.80;;
29574;SDS011;16507;51.046;6.406;2023-06-19T11:12:19;8.02;;;3.38;;
29574;SDS011;16507;51.046;6.406;2023-06-19T11:14:45;8.75;;;3.15;;
29574;SDS011;16507;51.046;6.406;2023-06-19T11:17:11;6.10;;;3.60;;
29574;SDS011;16507;51.046;6.406;2023-06-19T11:19:37;7.72;;;2.83;;
29574;SDS011;16507;51.046;6.406;2023-06-19T11:22:05;3.22;;;3.03;;
29574;SDS011;16507;51.046;6.406;2023-06-19T11:24:32;3.70;;;3.38;;
29574;SDS011;16507;51.046;6.406;2023-06-19T11:26:57;4.15;;;2.88;;
29574;SDS011;16507;51.046;6.406;2023-06-19T11:29:29;5.07;;;3.40;;
29574;SDS011;16507;51.046;6.406;2023-06-19T11:32:08;3.83;;;3.40;;
29574;SDS011;16507;51.046;6.406;2023-06-19T11:34:36;3.55;;;3.35;;
29574;SDS011;16507;51.046;6.406;2023-06-19T11:37:17;3.50;;;3.20;;
29574;SDS011;16507;51.046;6.406;2023-06-19T11:39:46;3.45;;;3.15;;
29574;SDS011;16507;51.046;6.406;2023-06-19T11:42:14;3.63;;;3.33;;
29574;SDS011;16507;51.046;6.406;2023-06-19T11:45:03;4.07;;;3.53;;
29574;SDS011;16507;51.046;6.406;2023-06-19T11:47:31;3.75;;;3.13;;
29574;SDS011;16507;51.046;6.406;2023-06-19T11:49:57;7.57;;;3.10;;
29574;SDS011;16507;51.046;6.406;2023-06-19T11:52:23;3.40;;;3.10;;
29574;SDS011;16507;51.046;6.406;2023-06-19T11:54:49;4.78;;;3.60;;
29574;SDS011;16507;51.046;6.406;2023-06-19T11:57:15;3.10;;;2.90;;
29574;SDS011;16507;51.046;6.406;2023-06-19T11:59:41;5.20;;;3.15;;
29574;SDS011;16507;51.046;6.406;2023-06-19T12:02:07;5.22;;;3.38;;
29574;SDS011;16507;51.046;6.406;2023-06-19T12:04:33;3.70;;;3.40;;
29574;SDS011;16507;51.046;6.406;2023-06-19T12:06:59;6.32;;;3.22;;
29574;SDS011;16507;51.046;6.406;2023-06-19T12:09:25;3.05;;;2.72;;
29574;SDS011;16507;51.046;6.406;2023-06-19T12:11:51;3.20;;;3.00;;
29574;SDS011;16507;51.046;6.406;2023-06-19T12:14:16;3.35;;;3.05;;
29574;SDS011;16507;51.046;6.406;2023-06-19T12:16:43;4.32;;;3.05;;
29574;SDS011;16507;51.046;6.406;2023-06-19T12:19:10;3.38;;;2.92;;
29574;SDS011;16507;51.046;6.406;2023-06-19T12:21:36;5.95;;;3.40;;
29574;SDS011;16507;51.046;6.406;2023-06-19T12:24:01;11.25;;;3.05;;
29574;SDS011;16507;51.046;6.406;2023-06-19T12:26:27;7.20;;;3.53;;
29574;SDS011;16507;51.046;6.406;2023-06-19T12:28:53;4.78;;;3.13;;
29574;SDS011;16507;51.046;6.406;2023-06-19T12:31:18;14.95;;;3.63;;
29574;SDS011;16507;51.046;6.406;2023-06-19T12:33:44;6.13;;;3.40;;
29574;SDS011;16507;51.046;6.406;2023-06-19T12:36:12;9.85;;;3.10;;
29574;SDS011;16507;51.046;6.406;2023-06-19T12:38:38;4.78;;;3.53;;
29574;SDS011;16507;51.046;6.406;2023-06-19T12:41:04;2.83;;;2.67;;
29574;SDS011;16507;51.046;6.406;2023-06-19T12:43:30;2.80;;;2.60;;
29574;SDS011;16507;51.046;6.406;2023-06-19T12:45:59;5.15;;;2.90;;
29574;SDS011;16507;51.046;6.406;2023-06-19T12:48:26;3.00;;;2.80;;
29574;SDS011;16507;51.046;6.406;2023-06-19T12:50:51;6.95;;;3.35;;
29574;SDS011;16507;51.046;6.406;2023-06-19T12:53:17;6.53;;;3.25;;
29574;SDS011;16507;51.046;6.406;2023-06-19T12:55:42;34.97;;;3.30;;
29574;SDS011;16507;51.046;6.406;2023-06-19T12:58:08;3.35;;;3.05;;
29574;SDS011;16507;51.046;6.406;2023-06-19T13:00:34;7.47;;;3.30;;
29574;SDS011;16507;51.046;6.406;2023-06-19T13:03:00;5.40;;;3.00;;
29574;SDS011;16507;51.046;6.406;2023-06-19T13:05:26;4.03;;;3.05;;
29574;SDS011;16507;51.046;6.406;2023-06-19T13:07:51;4.20;;;2.70;;
29574;SDS011;16507;51.046;6.406;2023-06-19T13:10:17;6.22;;;3.30;;
29574;SDS011;16507;51.046;6.406;2023-06-19T13:12:42;4.93;;;3.78;;
29574;SDS011;16507;51.046;6.406;2023-06-19T13:15:09;3.47;;;2.83;;
29574;SDS011;16507;51.046;6.406;2023-06-19T13:17:34;4.82;;;2.83;;
29574;SDS011;16507;51.046;6.406;2023-06-19T13:20:00;5.95;;;2.80;;
29574;SDS011;16507;51.046;6.406;2023-06-19T13:22:26;23.38;;;4.50;;
29574;SDS011;16507;51.046;6.406;2023-06-19T13:24:52;2.90;;;2.70;;
29574;SDS011;16507;51.046;6.406;2023-06-19T13:27:17;7.15;;;2.88;;
29574;SDS011;16507;51.046;6.406;2023-06-19T13:29:43;13.55;;;4.53;;
29574;SDS011;16507;51.046;6.406;2023-06-19T13:32:09;5.15;;;3.17;;
29574;SDS011;16507;51.046;6.406;2023-06-19T13:34:34;8.57;;;2.80;;
29574;SDS011;16507;51.046;6.406;2023-06-19T13:37:00;3.83;;;2.60;;
29574;SDS011;16507;51.046;6.406;2023-06-19T13:39:26;6.78;;;2.55;;
29574;SDS011;16507;51.046;6.406;2023-06-19T13:41:52;2.97;;;2.70;;
29574;SDS011;16507;51.046;6.406;2023-06-19T13:44:17;5.40;;;2.75;;
29574;SDS011;16507;51.046;6.406;2023-06-19T13:46:44;3.88;;;2.33;;
29574;SDS011;16507;51.046;6.406;2023-06-19T13:49:09;36.15;;;4.47;;
29574;SDS011;16507;51.046;6.406;2023-06-19T13:51:36;13.88;;;3.00;;
29574;SDS011;16507;51.046;6.406;2023-06-19T13:54:02;2.33;;;2.13;;
29574;SDS011;16507;51.046;6.406;2023-06-19T13:56:29;3.72;;;2.45;;
29574;SDS011;16507;51.046;6.406;2023-06-19T13:58:55;2.42;;;2.28;;
29574;SDS011;16507;51.046;6.406;2023-06-19T14:01:22;2.60;;;2.40;;
29574;SDS011;16507;51.046;6.406;2023-06-19T14:03:48;3.15;;;2.33;;
29574;SDS011;16507;51.046;6.406;2023-06-19T14:06:13;4.25;;;2.70;;
29574;SDS011;16507;51.046;6.406;2023-06-19T14:08:39;3.28;;;2.40;;
29574;SDS011;16507;51.046;6.406;2023-06-19T14:11:05;5.30;;;2.63;;
29574;SDS011;16507;51.046;6.406;2023-06-19T14:13:30;3.78;;;2.55;;
29574;SDS011;16507;51.046;6.406;2023-06-19T14:15:56;4.15;;;2.40;;
29574;SDS011;16507;51.046;6.406;2023-06-19T14:18:22;3.15;;;2.42;;
29574;SDS011;16507;51.046;6.406;2023-06-19T14:20:47;4.13;;;2.42;;
29574;SDS011;16507;51.046;6.406;2023-06-19T14:23:13;3.38;;;2.58;;
29574;SDS011;16507;51.046;6.406;2023-06-19T14:25:38;2.40;;;2.20;;
29574;SDS011;16507;51.046;6.406;2023-06-19T14:28:04;10.88;;;2.53;;
29574;SDS011;16507;51.046;6.406;2023-06-19T14:30:30;6.38;;;1.75;;
29574;SDS011;16507;51.046;6.406;2023-06-19T14:32:55;2.30;;;2.10;;
29574;SDS011;16507;51.046;6.406;2023-06-19T14:35:21;6.75;;;2.40;;
29574;SDS011;16507;51.046;6.406;2023-06-19T14:37:47;2.50;;;2.25;;
29574;SDS011;16507;51.046;6.406;2023-06-19T14:40:12;3.85;;;2.08;;
29574;SDS011;16507;51.046;6.406;2023-06-19T14:42:38;4.03;;;2.28;;
29574;SDS011;16507;51.046;6.406;2023-06-19T14:45:03;4.60;;;2.20;;
29574;SDS011;16507;51.046;6.406;2023-06-19T14:47:29;6.05;;;2.22;;
29574;SDS011;16507;51.046;6.406;2023-06-19T14:49:55;2.40;;;2.25;;
29574;SDS011;16507;51.046;6.406;2023-06-19T14:52:20;12.45;;;2.90;;